sensor_id;sensor_type;location;lat;lon;timestamp;pressure;altitude;pressure_sealevel;temperature
41940;BMP180;23057;48.554;14.454;2023-09-12T00:02:11;93668.00;;;23.50
41940;BMP180;23057;48.554;14.454;2023-09-12T00:04:42;93671.00;;;23.50
41940;BMP180;23057;48.554;14.454;2023-09-12T00:07:12;93670.00;;;23.40
41940;BMP180;23057;48.554;14.454;2023-09-12T00:09:43;93675.00;;;23.30
41940;BMP180;23057;48.554;14.454;2023-09-12T00:12:15;93668.00;;;23.30
41940;BMP180;23057;48.554;14.454;2023-09-12T00:14:47;93674.00;;;23.30
41940;BMP180;23057;48.554;14.454;2023-09-12T00:17:17;93672.00;;;23.30
41940;BMP180;23057;48.554;14.454;2023-09-12T00:19:48;93674.00;;;23.30
41940;BMP180;23057;48.554;14.454;2023-09-12T00:22:19;93671.00;;;23.20
41940;BMP180;23057;48.554;14.454;2023-09-12T00:24:50;93668.00;;;23.20
41940;BMP180;23057;48.554;14.454;2023-09-12T00:27:21;93667.00;;;23.20
41940;BMP180;23057;48.554;14.454;2023-09-12T00:29:51;93667.00;;;23.20
41940;BMP180;23057;48.554;14.454;2023-09-12T00:32:22;93657.00;;;23.20
41940;BMP180;23057;48.554;14.454;2023-09-12T00:34:53;93655.00;;;23.20
41940;BMP180;23057;48.554;14.454;2023-09-12T00:37:24;93653.00;;;23.20
41940;BMP180;23057;48.554;14.454;2023-09-12T00:39:55;93651.00;;;23.20
41940;BMP180;23057;48.554;14.454;2023-09-12T00:42:26;93650.00;;;23.20
41940;BMP180;23057;48.554;14.454;2023-09-12T00:44:57;93652.00;;;23.20
41940;BMP180;23057;48.554;14.454;2023-09-12T00:47:29;93652.00;;;23.20
41940;BMP180;23057;48.554;14.454;2023-09-12T00:50:04;93654.00;;;23.20
41940;BMP180;23057;48.554;14.454;2023-09-12T00:52:38;93650.00;;;23.10
41940;BMP180;23057;48.554;14.454;2023-09-12T00:55:10;93651.00;;;23.10
41940;BMP180;23057;48.554;14.454;2023-09-12T00:57:42;93650.00;;;23.00
41940;BMP180;23057;48.554;14.454;2023-09-12T01:00:14;93658.00;;;23.00
41940;BMP180;23057;48.554;14.454;2023-09-12T01:02:46;93654.00;;;23.00
41940;BMP180;23057;48.554;14.454;2023-09-12T01:05:19;93660.00;;;23.00
41940;BMP180;23057;48.554;14.454;2023-09-12T01:07:52;93659.00;;;23.00
41940;BMP180;23057;48.554;14.454;2023-09-12T01:10:24;93660.00;;;23.00
41940;BMP180;23057;48.554;14.454;2023-09-12T01:12:55;93658.00;;;23.00
41940;BMP180;23057;48.554;14.454;2023-09-12T01:15:25;93655.00;;;22.90
41940;BMP180;23057;48.554;14.454;2023-09-12T01:17:57;93663.00;;;22.80
41940;BMP180;23057;48.554;14.454;2023-09-12T01:20:32;93660.00;;;22.70
41940;BMP180;23057;48.554;14.454;2023-09-12T01:27:21;93656.00;;;22.60
41940;BMP180;23057;48.554;14.454;2023-09-12T01:30:01;93653.00;;;22.50
41940;BMP180;23057;48.554;14.454;2023-09-12T01:32:35;93656.00;;;22.50
41940;BMP180;23057;48.554;14.454;2023-09-12T01:35:08;93649.00;;;22.50
41940;BMP180;23057;48.554;14.454;2023-09-12T01:37:39;93643.00;;;22.50
41940;BMP180;23057;48.554;14.454;2023-09-12T01:40:10;93654.00;;;22.50
41940;BMP180;23057;48.554;14.454;2023-09-12T01:42:46;93648.00;;;22.50
41940;BMP180;23057;48.554;14.454;2023-09-12T01:45:19;93648.00;;;22.60
41940;BMP180;23057;48.554;14.454;2023-09-12T01:47:51;93653.00;;;22.60
41940;BMP180;23057;48.554;14.454;2023-09-12T01:50:25;93644.00;;;22.60
41940;BMP180;23057;48.554;14.454;2023-09-12T01:52:59;93652.00;;;22.60
41940;BMP180;23057;48.554;14.454;2023-09-12T01:55:32;93645.00;;;22.60
41940;BMP180;23057;48.554;14.454;2023-09-12T01:58:03;93646.00;;;22.50
41940;BMP180;23057;48.554;14.454;2023-09-12T02:00:35;93651.00;;;22.50
41940;BMP180;23057;48.554;14.454;2023-09-12T02:03:06;93650.00;;;22.50
41940;BMP180;23057;48.554;14.454;2023-09-12T02:05:38;93644.00;;;22.40
41940;BMP180;23057;48.554;14.454;2023-09-12T02:08:10;93656.00;;;22.40
41940;BMP180;23057;48.554;14.454;2023-09-12T02:10:41;93644.00;;;22.40
41940;BMP180;23057;48.554;14.454;2023-09-12T02:13:12;93644.00;;;22.40
41940;BMP180;23057;48.554;14.454;2023-09-12T02:15:43;93644.00;;;22.30
41940;BMP180;23057;48.554;14.454;2023-09-12T02:18:14;93651.00;;;22.30
41940;BMP180;23057;48.554;14.454;2023-09-12T02:20:45;93646.00;;;22.20
41940;BMP180;23057;48.554;14.454;2023-09-12T02:23:16;93653.00;;;22.10
41940;BMP180;23057;48.554;14.454;2023-09-12T02:25:47;93647.00;;;22.10
41940;BMP180;23057;48.554;14.454;2023-09-12T02:28:18;93647.00;;;22.10
41940;BMP180;23057;48.554;14.454;2023-09-12T02:30:49;93643.00;;;22.10
41940;BMP180;23057;48.554;14.454;2023-09-12T02:33:19;93638.00;;;22.10
41940;BMP180;23057;48.554;14.454;2023-09-12T02:35:50;93640.00;;;22.10
41940;BMP180;23057;48.554;14.454;2023-09-12T02:38:21;93638.00;;;22.10
41940;BMP180;23057;48.554;14.454;2023-09-12T02:40:52;93644.00;;;22.10
41940;BMP180;23057;48.554;14.454;2023-09-12T02:43:23;93643.00;;;22.10
41940;BMP180;23057;48.554;14.454;2023-09-12T02:45:54;93641.00;;;22.10
41940;BMP180;23057;48.554;14.454;2023-09-12T02:48:24;93646.00;;;22.00
41940;BMP180;23057;48.554;14.454;2023-09-12T02:50:55;93649.00;;;22.00
41940;BMP180;23057;48.554;14.454;2023-09-12T02:53:26;93649.00;;;21.90
41940;BMP180;23057;48.554;14.454;2023-09-12T02:55:57;93641.00;;;21.80
41940;BMP180;23057;48.554;14.454;2023-09-12T02:58:27;93646.00;;;21.80
41940;BMP180;23057;48.554;14.454;2023-09-12T03:00:58;93646.00;;;21.70
41940;BMP180;23057;48.554;14.454;2023-09-12T03:03:30;93639.00;;;21.70
41940;BMP180;23057;48.554;14.454;2023-09-12T03:06:01;93643.00;;;21.70
41940;BMP180;23057;48.554;14.454;2023-09-12T03:08:35;93638.00;;;21.60
41940;BMP180;23057;48.554;14.454;2023-09-12T03:11:06;93632.00;;;21.60
41940;BMP180;23057;48.554;14.454;2023-09-12T03:13:41;93634.00;;;21.70
41940;BMP180;23057;48.554;14.454;2023-09-12T03:16:13;93632.00;;;21.70
41940;BMP180;23057;48.554;14.454;2023-09-12T03:18:44;93634.00;;;21.70
41940;BMP180;23057;48.554;14.454;2023-09-12T03:21:15;93627.00;;;21.70
41940;BMP180;23057;48.554;14.454;2023-09-12T03:23:46;93633.00;;;21.60
41940;BMP180;23057;48.554;14.454;2023-09-12T03:26:17;93632.00;;;21.60
41940;BMP180;23057;48.554;14.454;2023-09-12T03:28:49;93634.00;;;21.60
41940;BMP180;23057;48.554;14.454;2023-09-12T03:31:23;93629.00;;;21.60
41940;BMP180;23057;48.554;14.454;2023-09-12T03:33:54;93623.00;;;21.50
41940;BMP180;23057;48.554;14.454;2023-09-12T03:36:24;93622.00;;;21.50
41940;BMP180;23057;48.554;14.454;2023-09-12T03:38:55;93630.00;;;21.40
41940;BMP180;23057;48.554;14.454;2023-09-12T03:41:26;93622.00;;;21.40
41940;BMP180;23057;48.554;14.454;2023-09-12T03:43:57;93627.00;;;21.30
41940;BMP180;23057;48.554;14.454;2023-09-12T03:46:28;93620.00;;;21.20
41940;BMP180;23057;48.554;14.454;2023-09-12T03:48:58;93627.00;;;21.20
41940;BMP180;23057;48.554;14.454;2023-09-12T03:51:29;93618.00;;;21.20
41940;BMP180;23057;48.554;14.454;2023-09-12T03:54:00;93623.00;;;21.10
41940;BMP180;23057;48.554;14.454;2023-09-12T03:56:31;93625.00;;;21.10
41940;BMP180;23057;48.554;14.454;2023-09-12T03:59:02;93629.00;;;21.10
41940;BMP180;23057;48.554;14.454;2023-09-12T04:01:33;93628.00;;;21.10
41940;BMP180;23057;48.554;14.454;2023-09-12T04:04:04;93634.00;;;21.00
41940;BMP180;23057;48.554;14.454;2023-09-12T04:06:35;93629.00;;;21.00
41940;BMP180;23057;48.554;14.454;2023-09-12T04:09:06;93630.00;;;21.00
41940;BMP180;23057;48.554;14.454;2023-09-12T04:11:37;93635.00;;;21.00
41940;BMP180;23057;48.554;14.454;2023-09-12T04:14:07;93629.00;;;21.00
41940;BMP180;23057;48.554;14.454;2023-09-12T04:16:39;93628.00;;;21.10
41940;BMP180;23057;48.554;14.454;2023-09-12T04:19:10;93634.00;;;21.10
41940;BMP180;23057;48.554;14.454;2023-09-12T04:21:41;93623.00;;;21.10
41940;BMP180;23057;48.554;14.454;2023-09-12T04:24:12;93635.00;;;21.00
41940;BMP180;23057;48.554;14.454;2023-09-12T04:26:43;93629.00;;;21.10
41940;BMP180;23057;48.554;14.454;2023-09-12T04:29:14;93637.00;;;21.00
41940;BMP180;23057;48.554;14.454;2023-09-12T04:31:45;93632.00;;;21.00
41940;BMP180;23057;48.554;14.454;2023-09-12T04:34:16;93634.00;;;21.00
41940;BMP180;23057;48.554;14.454;2023-09-12T04:36:47;93638.00;;;21.10
41940;BMP180;23057;48.554;14.454;2023-09-12T04:39:17;93632.00;;;21.00
41940;BMP180;23057;48.554;14.454;2023-09-12T04:41:48;93629.00;;;21.00
41940;BMP180;23057;48.554;14.454;2023-09-12T04:44:19;93638.00;;;21.10
41940;BMP180;23057;48.554;14.454;2023-09-12T04:46:50;93636.00;;;21.10
41940;BMP180;23057;48.554;14.454;2023-09-12T04:49:21;93635.00;;;21.10
41940;BMP180;23057;48.554;14.454;2023-09-12T04:51:52;93633.00;;;21.20
41940;BMP180;23057;48.554;14.454;2023-09-12T04:54:22;93638.00;;;21.40
41940;BMP180;23057;48.554;14.454;2023-09-12T04:56:53;93642.00;;;21.60
41940;BMP180;23057;48.554;14.454;2023-09-12T04:59:24;93639.00;;;21.80
41940;BMP180;23057;48.554;14.454;2023-09-12T05:01:55;93636.00;;;22.00
41940;BMP180;23057;48.554;14.454;2023-09-12T05:04:26;93646.00;;;22.10
41940;BMP180;23057;48.554;14.454;2023-09-12T05:06:56;93652.00;;;22.30
41940;BMP180;23057;48.554;14.454;2023-09-12T05:09:27;93641.00;;;22.40
41940;BMP180;23057;48.554;14.454;2023-09-12T05:11:58;93645.00;;;22.50
41940;BMP180;23057;48.554;14.454;2023-09-12T05:14:29;93648.00;;;22.70
41940;BMP180;23057;48.554;14.454;2023-09-12T05:17:00;93649.00;;;22.80
41940;BMP180;23057;48.554;14.454;2023-09-12T05:19:32;93653.00;;;23.00
41940;BMP180;23057;48.554;14.454;2023-09-12T05:22:03;93651.00;;;23.10
41940;BMP180;23057;48.554;14.454;2023-09-12T05:24:34;93658.00;;;23.30
41940;BMP180;23057;48.554;14.454;2023-09-12T05:27:05;93644.00;;;23.40
41940;BMP180;23057;48.554;14.454;2023-09-12T05:29:36;93646.00;;;23.50
41940;BMP180;23057;48.554;14.454;2023-09-12T05:32:07;93653.00;;;23.70
41940;BMP180;23057;48.554;14.454;2023-09-12T05:34:38;93648.00;;;23.90
41940;BMP180;23057;48.554;14.454;2023-09-12T05:37:08;93653.00;;;24.20
41940;BMP180;23057;48.554;14.454;2023-09-12T05:39:39;93657.00;;;24.40
41940;BMP180;23057;48.554;14.454;2023-09-12T05:42:10;93657.00;;;24.50
41940;BMP180;23057;48.554;14.454;2023-09-12T05:44:41;93652.00;;;24.60
41940;BMP180;23057;48.554;14.454;2023-09-12T05:47:15;93658.00;;;24.70
41940;BMP180;23057;48.554;14.454;2023-09-12T05:49:46;93655.00;;;24.80
41940;BMP180;23057;48.554;14.454;2023-09-12T05:52:17;93658.00;;;24.90
41940;BMP180;23057;48.554;14.454;2023-09-12T05:54:48;93668.00;;;25.00
41940;BMP180;23057;48.554;14.454;2023-09-12T05:57:19;93670.00;;;25.20
41940;BMP180;23057;48.554;14.454;2023-09-12T05:59:50;93668.00;;;25.40
41940;BMP180;23057;48.554;14.454;2023-09-12T06:02:20;93667.00;;;25.60
41940;BMP180;23057;48.554;14.454;2023-09-12T06:04:51;93668.00;;;25.80
41940;BMP180;23057;48.554;14.454;2023-09-12T06:07:22;93663.00;;;26.10
41940;BMP180;23057;48.554;14.454;2023-09-12T06:09:53;93672.00;;;26.30
41940;BMP180;23057;48.554;14.454;2023-09-12T06:12:24;93660.00;;;26.40
41940;BMP180;23057;48.554;14.454;2023-09-12T06:14:55;93676.00;;;26.60
41940;BMP180;23057;48.554;14.454;2023-09-12T06:17:26;93663.00;;;26.80
41940;BMP180;23057;48.554;14.454;2023-09-12T06:19:58;93667.00;;;27.00
41940;BMP180;23057;48.554;14.454;2023-09-12T06:22:29;93667.00;;;27.20
41940;BMP180;23057;48.554;14.454;2023-09-12T06:25:00;93676.00;;;27.30
41940;BMP180;23057;48.554;14.454;2023-09-12T06:27:31;93677.00;;;27.50
41940;BMP180;23057;48.554;14.454;2023-09-12T06:30:02;93666.00;;;27.70
41940;BMP180;23057;48.554;14.454;2023-09-12T06:32:33;93675.00;;;27.90
41940;BMP180;23057;48.554;14.454;2023-09-12T06:35:04;93666.00;;;28.10
41940;BMP180;23057;48.554;14.454;2023-09-12T06:37:38;93673.00;;;28.20
41940;BMP180;23057;48.554;14.454;2023-09-12T06:40:10;93679.00;;;28.40
41940;BMP180;23057;48.554;14.454;2023-09-12T06:42:42;93682.00;;;28.50
41940;BMP180;23057;48.554;14.454;2023-09-12T06:45:13;93673.00;;;28.60
41940;BMP180;23057;48.554;14.454;2023-09-12T06:47:44;93679.00;;;28.80
41940;BMP180;23057;48.554;14.454;2023-09-12T06:50:15;93680.00;;;28.90
41940;BMP180;23057;48.554;14.454;2023-09-12T06:52:46;93683.00;;;29.10
41940;BMP180;23057;48.554;14.454;2023-09-12T06:55:17;93688.00;;;29.30
41940;BMP180;23057;48.554;14.454;2023-09-12T06:57:47;93684.00;;;29.40
41940;BMP180;23057;48.554;14.454;2023-09-12T07:00:18;93676.00;;;29.50
41940;BMP180;23057;48.554;14.454;2023-09-12T07:02:50;93677.00;;;29.60
41940;BMP180;23057;48.554;14.454;2023-09-12T07:05:21;93678.00;;;29.70
41940;BMP180;23057;48.554;14.454;2023-09-12T07:07:52;93675.00;;;29.70
41940;BMP180;23057;48.554;14.454;2023-09-12T07:10:23;93682.00;;;29.80
41940;BMP180;23057;48.554;14.454;2023-09-12T07:12:54;93683.00;;;29.90
41940;BMP180;23057;48.554;14.454;2023-09-12T07:15:25;93687.00;;;30.10
41940;BMP180;23057;48.554;14.454;2023-09-12T07:17:55;93687.00;;;30.20
41940;BMP180;23057;48.554;14.454;2023-09-12T07:20:27;93682.00;;;30.30
41940;BMP180;23057;48.554;14.454;2023-09-12T07:22:57;93688.00;;;30.50
41940;BMP180;23057;48.554;14.454;2023-09-12T07:25:28;93695.00;;;30.80
41940;BMP180;23057;48.554;14.454;2023-09-12T07:27:59;93687.00;;;31.10
41940;BMP180;23057;48.554;14.454;2023-09-12T07:30:30;93691.00;;;31.20
41940;BMP180;23057;48.554;14.454;2023-09-12T07:33:03;93687.00;;;31.40
41940;BMP180;23057;48.554;14.454;2023-09-12T07:35:34;93684.00;;;31.50
41940;BMP180;23057;48.554;14.454;2023-09-12T07:38:05;93687.00;;;31.70
41940;BMP180;23057;48.554;14.454;2023-09-12T07:40:36;93695.00;;;31.80
41940;BMP180;23057;48.554;14.454;2023-09-12T07:43:07;93687.00;;;32.00
41940;BMP180;23057;48.554;14.454;2023-09-12T07:45:38;93686.00;;;32.10
41940;BMP180;23057;48.554;14.454;2023-09-12T07:48:10;93698.00;;;32.20
41940;BMP180;23057;48.554;14.454;2023-09-12T07:50:43;93692.00;;;32.40
41940;BMP180;23057;48.554;14.454;2023-09-12T07:53:15;93697.00;;;32.60
41940;BMP180;23057;48.554;14.454;2023-09-12T07:55:46;93701.00;;;32.70
41940;BMP180;23057;48.554;14.454;2023-09-12T07:58:18;93693.00;;;32.70
41940;BMP180;23057;48.554;14.454;2023-09-12T08:00:49;93702.00;;;32.80
41940;BMP180;23057;48.554;14.454;2023-09-12T08:03:19;93701.00;;;32.90
41940;BMP180;23057;48.554;14.454;2023-09-12T08:05:57;93699.00;;;33.10
41940;BMP180;23057;48.554;14.454;2023-09-12T08:08:29;93699.00;;;33.10
41940;BMP180;23057;48.554;14.454;2023-09-12T08:11:01;93700.00;;;33.20
41940;BMP180;23057;48.554;14.454;2023-09-12T08:13:32;93704.00;;;33.30
41940;BMP180;23057;48.554;14.454;2023-09-12T08:16:03;93698.00;;;33.40
41940;BMP180;23057;48.554;14.454;2023-09-12T08:18:34;93700.00;;;33.50
41940;BMP180;23057;48.554;14.454;2023-09-12T08:21:05;93703.00;;;33.70
41940;BMP180;23057;48.554;14.454;2023-09-12T08:23:35;93701.00;;;33.80
41940;BMP180;23057;48.554;14.454;2023-09-12T08:26:06;93711.00;;;33.80
41940;BMP180;23057;48.554;14.454;2023-09-12T08:28:39;93710.00;;;33.90
41940;BMP180;23057;48.554;14.454;2023-09-12T08:31:10;93715.00;;;34.00
41940;BMP180;23057;48.554;14.454;2023-09-12T08:33:41;93714.00;;;34.20
41940;BMP180;23057;48.554;14.454;2023-09-12T08:36:12;93701.00;;;34.30
41940;BMP180;23057;48.554;14.454;2023-09-12T08:38:43;93703.00;;;34.40
41940;BMP180;23057;48.554;14.454;2023-09-12T08:41:13;93702.00;;;34.50
41940;BMP180;23057;48.554;14.454;2023-09-12T08:43:45;93703.00;;;34.50
41940;BMP180;23057;48.554;14.454;2023-09-12T08:46:20;93700.00;;;34.70
41940;BMP180;23057;48.554;14.454;2023-09-12T08:48:55;93705.00;;;34.80
41940;BMP180;23057;48.554;14.454;2023-09-12T08:51:26;93702.00;;;34.90
41940;BMP180;23057;48.554;14.454;2023-09-12T08:53:57;93700.00;;;34.90
41940;BMP180;23057;48.554;14.454;2023-09-12T08:56:28;93703.00;;;34.90
41940;BMP180;23057;48.554;14.454;2023-09-12T08:59:02;93709.00;;;35.00
41940;BMP180;23057;48.554;14.454;2023-09-12T09:01:35;93703.00;;;35.00
41940;BMP180;23057;48.554;14.454;2023-09-12T09:04:07;93702.00;;;35.10
41940;BMP180;23057;48.554;14.454;2023-09-12T09:06:41;93705.00;;;35.10
41940;BMP180;23057;48.554;14.454;2023-09-12T09:09:13;93698.00;;;35.10
41940;BMP180;23057;48.554;14.454;2023-09-12T09:11:44;93711.00;;;35.20
41940;BMP180;23057;48.554;14.454;2023-09-12T09:14:15;93700.00;;;35.20
41940;BMP180;23057;48.554;14.454;2023-09-12T09:16:46;93699.00;;;35.20
41940;BMP180;23057;48.554;14.454;2023-09-12T09:19:17;93693.00;;;35.20
41940;BMP180;23057;48.554;14.454;2023-09-12T09:21:48;93691.00;;;35.30
41940;BMP180;23057;48.554;14.454;2023-09-12T09:24:19;93694.00;;;35.40
41940;BMP180;23057;48.554;14.454;2023-09-12T09:26:52;93694.00;;;35.40
41940;BMP180;23057;48.554;14.454;2023-09-12T09:29:29;93696.00;;;35.40
41940;BMP180;23057;48.554;14.454;2023-09-12T09:32:02;93690.00;;;35.60
41940;BMP180;23057;48.554;14.454;2023-09-12T09:34:39;93691.00;;;35.70
41940;BMP180;23057;48.554;14.454;2023-09-12T09:37:12;93694.00;;;35.80
41940;BMP180;23057;48.554;14.454;2023-09-12T09:39:47;93693.00;;;35.80
41940;BMP180;23057;48.554;14.454;2023-09-12T09:42:22;93697.00;;;35.80
41940;BMP180;23057;48.554;14.454;2023-09-12T09:44:54;93689.00;;;35.90
41940;BMP180;23057;48.554;14.454;2023-09-12T09:47:25;93693.00;;;36.00
41940;BMP180;23057;48.554;14.454;2023-09-12T09:49:58;93697.00;;;36.00
41940;BMP180;23057;48.554;14.454;2023-09-12T09:52:29;93695.00;;;36.00
41940;BMP180;23057;48.554;14.454;2023-09-12T09:55:00;93694.00;;;35.80
41940;BMP180;23057;48.554;14.454;2023-09-12T09:57:37;93694.00;;;35.70
41940;BMP180;23057;48.554;14.454;2023-09-12T10:00:08;93692.00;;;35.70
41940;BMP180;23057;48.554;14.454;2023-09-12T10:02:46;93691.00;;;35.80
41940;BMP180;23057;48.554;14.454;2023-09-12T10:05:21;93689.00;;;35.90
41940;BMP180;23057;48.554;14.454;2023-09-12T10:07:55;93680.00;;;35.80
41940;BMP180;23057;48.554;14.454;2023-09-12T10:10:30;93695.00;;;35.80
41940;BMP180;23057;48.554;14.454;2023-09-12T10:13:03;93698.00;;;35.70
41940;BMP180;23057;48.554;14.454;2023-09-12T10:15:38;93691.00;;;35.70
41940;BMP180;23057;48.554;14.454;2023-09-12T10:18:19;93693.00;;;35.80
41940;BMP180;23057;48.554;14.454;2023-09-12T10:21:11;93688.00;;;35.90
41940;BMP180;23057;48.554;14.454;2023-09-12T10:23:50;93685.00;;;35.90
41940;BMP180;23057;48.554;14.454;2023-09-12T10:26:22;93677.00;;;36.00
41940;BMP180;23057;48.554;14.454;2023-09-12T10:28:55;93681.00;;;36.00
41940;BMP180;23057;48.554;14.454;2023-09-12T10:31:27;93679.00;;;36.10
41940;BMP180;23057;48.554;14.454;2023-09-12T10:34:00;93685.00;;;36.20
41940;BMP180;23057;48.554;14.454;2023-09-12T10:36:38;93686.00;;;36.40
41940;BMP180;23057;48.554;14.454;2023-09-12T10:39:12;93680.00;;;36.40
41940;BMP180;23057;48.554;14.454;2023-09-12T10:41:46;93680.00;;;36.50
41940;BMP180;23057;48.554;14.454;2023-09-12T10:44:18;93678.00;;;36.60
41940;BMP180;23057;48.554;14.454;2023-09-12T10:46:52;93675.00;;;36.60
41940;BMP180;23057;48.554;14.454;2023-09-12T10:49:25;93674.00;;;36.80
41940;BMP180;23057;48.554;14.454;2023-09-12T10:51:57;93669.00;;;36.80
41940;BMP180;23057;48.554;14.454;2023-09-12T10:54:46;93679.00;;;37.00
41940;BMP180;23057;48.554;14.454;2023-09-12T10:57:17;93677.00;;;37.00
41940;BMP180;23057;48.554;14.454;2023-09-12T11:02:39;93672.00;;;37.30
41940;BMP180;23057;48.554;14.454;2023-09-12T11:05:34;93682.00;;;37.30
41940;BMP180;23057;48.554;14.454;2023-09-12T11:08:08;93685.00;;;37.30
41940;BMP180;23057;48.554;14.454;2023-09-12T11:10:39;93688.00;;;37.40
41940;BMP180;23057;48.554;14.454;2023-09-12T11:13:18;93686.00;;;37.50
41940;BMP180;23057;48.554;14.454;2023-09-12T11:16:13;93679.00;;;37.40
41940;BMP180;23057;48.554;14.454;2023-09-12T11:19:17;93691.00;;;37.50
41940;BMP180;23057;48.554;14.454;2023-09-12T11:21:53;93690.00;;;37.40
41940;BMP180;23057;48.554;14.454;2023-09-12T11:24:26;93693.00;;;37.40
41940;BMP180;23057;48.554;14.454;2023-09-12T11:26:59;93689.00;;;37.30
41940;BMP180;23057;48.554;14.454;2023-09-12T11:29:38;93685.00;;;37.30
41940;BMP180;23057;48.554;14.454;2023-09-12T11:32:09;93686.00;;;37.30
41940;BMP180;23057;48.554;14.454;2023-09-12T11:34:42;93679.00;;;37.30
41940;BMP180;23057;48.554;14.454;2023-09-12T11:37:24;93688.00;;;37.50
41940;BMP180;23057;48.554;14.454;2023-09-12T11:39:56;93680.00;;;37.50
41940;BMP180;23057;48.554;14.454;2023-09-12T11:42:29;93679.00;;;37.50
41940;BMP180;23057;48.554;14.454;2023-09-12T11:45:01;93679.00;;;37.50
41940;BMP180;23057;48.554;14.454;2023-09-12T11:47:32;93682.00;;;37.40
41940;BMP180;23057;48.554;14.454;2023-09-12T11:50:04;93679.00;;;37.40
41940;BMP180;23057;48.554;14.454;2023-09-12T11:52:36;93676.00;;;37.40
41940;BMP180;23057;48.554;14.454;2023-09-12T11:55:10;93680.00;;;37.40
41940;BMP180;23057;48.554;14.454;2023-09-12T11:57:41;93668.00;;;37.20
41940;BMP180;23057;48.554;14.454;2023-09-12T12:00:13;93663.00;;;37.20
41940;BMP180;23057;48.554;14.454;2023-09-12T12:02:44;93671.00;;;37.20
41940;BMP180;23057;48.554;14.454;2023-09-12T12:05:15;93675.00;;;37.20
41940;BMP180;23057;48.554;14.454;2023-09-12T12:07:47;93674.00;;;37.20
41940;BMP180;23057;48.554;14.454;2023-09-12T12:10:19;93658.00;;;37.10
41940;BMP180;23057;48.554;14.454;2023-09-12T12:12:53;93658.00;;;37.10
41940;BMP180;23057;48.554;14.454;2023-09-12T12:15:27;93657.00;;;37.20
41940;BMP180;23057;48.554;14.454;2023-09-12T12:17:58;93653.00;;;37.20
41940;BMP180;23057;48.554;14.454;2023-09-12T12:20:29;93655.00;;;37.20
41940;BMP180;23057;48.554;14.454;2023-09-12T12:23:00;93666.00;;;37.20
41940;BMP180;23057;48.554;14.454;2023-09-12T12:25:35;93664.00;;;37.10
41940;BMP180;23057;48.554;14.454;2023-09-12T12:28:06;93664.00;;;37.10
41940;BMP180;23057;48.554;14.454;2023-09-12T12:30:37;93657.00;;;37.10
41940;BMP180;23057;48.554;14.454;2023-09-12T12:33:10;93665.00;;;37.00
41940;BMP180;23057;48.554;14.454;2023-09-12T12:35:41;93653.00;;;37.00
41940;BMP180;23057;48.554;14.454;2023-09-12T12:38:12;93659.00;;;37.10
41940;BMP180;23057;48.554;14.454;2023-09-12T12:40:43;93656.00;;;37.10
41940;BMP180;23057;48.554;14.454;2023-09-12T12:43:19;93653.00;;;37.10
41940;BMP180;23057;48.554;14.454;2023-09-12T12:45:55;93655.00;;;37.10
41940;BMP180;23057;48.554;14.454;2023-09-12T12:48:35;93652.00;;;37.10
41940;BMP180;23057;48.554;14.454;2023-09-12T12:51:25;93655.00;;;37.10
41940;BMP180;23057;48.554;14.454;2023-09-12T12:54:04;93645.00;;;37.10
41940;BMP180;23057;48.554;14.454;2023-09-12T12:56:38;93652.00;;;37.10
41940;BMP180;23057;48.554;14.454;2023-09-12T12:59:10;93643.00;;;37.10
41940;BMP180;23057;48.554;14.454;2023-09-12T13:01:41;93650.00;;;37.00
41940;BMP180;23057;48.554;14.454;2023-09-12T13:04:12;93641.00;;;37.00
41940;BMP180;23057;48.554;14.454;2023-09-12T13:06:42;93644.00;;;36.90
41940;BMP180;23057;48.554;14.454;2023-09-12T13:09:13;93643.00;;;36.90
41940;BMP180;23057;48.554;14.454;2023-09-12T13:11:46;93649.00;;;36.90
41940;BMP180;23057;48.554;14.454;2023-09-12T13:14:16;93642.00;;;36.90
41940;BMP180;23057;48.554;14.454;2023-09-12T13:16:49;93636.00;;;36.80
41940;BMP180;23057;48.554;14.454;2023-09-12T13:19:20;93647.00;;;36.80
41940;BMP180;23057;48.554;14.454;2023-09-12T13:21:51;93642.00;;;36.80
41940;BMP180;23057;48.554;14.454;2023-09-12T13:24:22;93642.00;;;36.80
41940;BMP180;23057;48.554;14.454;2023-09-12T13:26:53;93645.00;;;36.90
41940;BMP180;23057;48.554;14.454;2023-09-12T13:29:24;93649.00;;;36.90
41940;BMP180;23057;48.554;14.454;2023-09-12T13:31:55;93644.00;;;37.00
41940;BMP180;23057;48.554;14.454;2023-09-12T13:34:26;93645.00;;;37.00
41940;BMP180;23057;48.554;14.454;2023-09-12T13:36:57;93646.00;;;37.00
41940;BMP180;23057;48.554;14.454;2023-09-12T13:39:28;93643.00;;;37.00
41940;BMP180;23057;48.554;14.454;2023-09-12T13:41:59;93645.00;;;37.00
41940;BMP180;23057;48.554;14.454;2023-09-12T13:44:33;93640.00;;;36.90
41940;BMP180;23057;48.554;14.454;2023-09-12T13:47:04;93637.00;;;36.90
41940;BMP180;23057;48.554;14.454;2023-09-12T13:49:35;93634.00;;;36.80
41940;BMP180;23057;48.554;14.454;2023-09-12T13:52:06;93634.00;;;36.70
41940;BMP180;23057;48.554;14.454;2023-09-12T13:54:37;93630.00;;;36.70
41940;BMP180;23057;48.554;14.454;2023-09-12T13:57:08;93633.00;;;36.60
41940;BMP180;23057;48.554;14.454;2023-09-12T13:59:39;93629.00;;;36.60
41940;BMP180;23057;48.554;14.454;2023-09-12T14:02:10;93637.00;;;36.60
41940;BMP180;23057;48.554;14.454;2023-09-12T14:04:41;93635.00;;;36.60
41940;BMP180;23057;48.554;14.454;2023-09-12T14:07:12;93638.00;;;36.50
41940;BMP180;23057;48.554;14.454;2023-09-12T14:09:43;93630.00;;;36.50
41940;BMP180;23057;48.554;14.454;2023-09-12T14:12:14;93635.00;;;36.50
41940;BMP180;23057;48.554;14.454;2023-09-12T14:14:44;93632.00;;;36.40
41940;BMP180;23057;48.554;14.454;2023-09-12T14:17:15;93644.00;;;36.40
41940;BMP180;23057;48.554;14.454;2023-09-12T14:19:46;93633.00;;;36.40
41940;BMP180;23057;48.554;14.454;2023-09-12T14:22:17;93638.00;;;36.20
41940;BMP180;23057;48.554;14.454;2023-09-12T14:24:48;93635.00;;;36.10
41940;BMP180;23057;48.554;14.454;2023-09-12T14:27:18;93638.00;;;36.10
41940;BMP180;23057;48.554;14.454;2023-09-12T14:29:49;93632.00;;;36.00
41940;BMP180;23057;48.554;14.454;2023-09-12T14:32:21;93632.00;;;35.90